Pilot Knob, Illinois
Current Conditions -  °F | °C
As of 10:35 AM on Friday 24 Oct 2014 (Local Time) from KSAR Reporting Station
Overcast Overcast  
Wind Chill: 15°   Ceiling: 700
Heat Index: 15°   Visibility: 10mi
Dew Point: 13°   Wind: 5mph
Humidity: 88%   Direction: 310°NW
Pressure: 30.14"   Gusts: NA
Location:  38.318°N, 89.3879°W
Report Text: KSAR 241535Z AUTO 31004KT 10SM OVC007 15/13 A3014 RMK AO2 T01450125
Loading
Personal Weather Stations






























Interactive Weather Map
Tropical Storm Tracking
New forecast layout! Learn more

10-Day Weather Forecast

Advertisements
Track Severe Weather on mobile